sensor_id;sensor_type;location;lat;lon;timestamp;pressure;altitude;pressure_sealevel;temperature;humidity
17230;BME280;8731;50.364;8.958;2022-08-01T00:01:35;99968.66;;;23.89;59.39
17230;BME280;8731;50.364;8.958;2022-08-01T00:05:57;99981.03;;;23.95;59.29
17230;BME280;8731;50.364;8.958;2022-08-01T00:10:20;99986.06;;;23.66;60.72
17230;BME280;8731;50.364;8.958;2022-08-01T00:14:42;99982.22;;;23.80;59.73
17230;BME280;8731;50.364;8.958;2022-08-01T00:19:06;99993.13;;;23.70;60.91
17230;BME280;8731;50.364;8.958;2022-08-01T00:23:28;99984.91;;;23.60;60.85
17230;BME280;8731;50.364;8.958;2022-08-01T00:27:51;99984.09;;;23.61;61.41
17230;BME280;8731;50.364;8.958;2022-08-01T00:32:14;99973.53;;;23.56;61.08
17230;BME280;8731;50.364;8.958;2022-08-01T00:36:38;99967.19;;;23.49;62.50
17230;BME280;8731;50.364;8.958;2022-08-01T00:41:01;99966.97;;;23.43;60.90
17230;BME280;8731;50.364;8.958;2022-08-01T00:45:23;99964.88;;;23.35;60.74
17230;BME280;8731;50.364;8.958;2022-08-01T00:49:45;99973.56;;;23.35;62.52
17230;BME280;8731;50.364;8.958;2022-08-01T00:54:09;99972.38;;;23.27;63.18
17230;BME280;8731;50.364;8.958;2022-08-01T00:58:32;99972.28;;;23.24;62.84
17230;BME280;8731;50.364;8.958;2022-08-01T01:02:55;99977.53;;;23.25;62.02
17230;BME280;8731;50.364;8.958;2022-08-01T01:07:20;99970.31;;;23.18;62.43
17230;BME280;8731;50.364;8.958;2022-08-01T01:11:57;99973.59;;;23.14;63.48
17230;BME280;8731;50.364;8.958;2022-08-01T01:16:26;99974.09;;;23.04;64.11
17230;BME280;8731;50.364;8.958;2022-08-01T01:21:01;99978.22;;;22.99;64.80
17230;BME280;8731;50.364;8.958;2022-08-01T01:25:40;99978.84;;;22.93;64.29
17230;BME280;8731;50.364;8.958;2022-08-01T01:30:16;99977.84;;;22.90;64.02
17230;BME280;8731;50.364;8.958;2022-08-01T01:34:43;99991.47;;;22.84;63.63
17230;BME280;8731;50.364;8.958;2022-08-01T01:39:07;99988.66;;;22.80;64.87
17230;BME280;8731;50.364;8.958;2022-08-01T01:43:30;99991.25;;;22.80;63.82
17230;BME280;8731;50.364;8.958;2022-08-01T01:47:56;99987.19;;;22.65;65.16
17230;BME280;8731;50.364;8.958;2022-08-01T01:52:20;99996.31;;;22.56;65.79
17230;BME280;8731;50.364;8.958;2022-08-01T01:56:44;100001.69;;;22.60;65.61
17230;BME280;8731;50.364;8.958;2022-08-01T02:01:11;99993.00;;;22.60;65.39
17230;BME280;8731;50.364;8.958;2022-08-01T02:05:35;99986.81;;;22.56;65.60
17230;BME280;8731;50.364;8.958;2022-08-01T02:10:02;99984.22;;;22.56;65.39
17230;BME280;8731;50.364;8.958;2022-08-01T02:14:27;99989.41;;;22.56;65.14
17230;BME280;8731;50.364;8.958;2022-08-01T02:18:51;99990.19;;;22.54;65.79
17230;BME280;8731;50.364;8.958;2022-08-01T02:23:15;99996.19;;;22.53;65.79
17230;BME280;8731;50.364;8.958;2022-08-01T02:27:42;99996.72;;;22.25;67.37
17230;BME280;8731;50.364;8.958;2022-08-01T02:32:12;100004.50;;;22.25;68.05
17230;BME280;8731;50.364;8.958;2022-08-01T02:36:44;100008.44;;;22.36;66.42
17230;BME280;8731;50.364;8.958;2022-08-01T02:41:13;100013.50;;;22.33;67.49
17230;BME280;8731;50.364;8.958;2022-08-01T02:45:43;100009.97;;;22.31;67.46
17230;BME280;8731;50.364;8.958;2022-08-01T02:50:16;100015.09;;;22.29;67.13
17230;BME280;8731;50.364;8.958;2022-08-01T02:54:41;100013.38;;;22.30;67.38
17230;BME280;8731;50.364;8.958;2022-08-01T02:59:08;100013.38;;;22.30;67.50
17230;BME280;8731;50.364;8.958;2022-08-01T03:03:34;100009.91;;;22.29;67.37
17230;BME280;8731;50.364;8.958;2022-08-01T03:07:58;100006.47;;;22.30;67.25
17230;BME280;8731;50.364;8.958;2022-08-01T03:12:26;100011.66;;;22.30;67.72
17230;BME280;8731;50.364;8.958;2022-08-01T03:16:52;100006.47;;;22.30;67.10
17230;BME280;8731;50.364;8.958;2022-08-01T03:21:17;100006.53;;;22.32;67.22
17230;BME280;8731;50.364;8.958;2022-08-01T03:25:44;100000.34;;;22.09;65.15
17230;BME280;8731;50.364;8.958;2022-08-01T03:30:07;100017.47;;;22.25;66.93
17230;BME280;8731;50.364;8.958;2022-08-01T03:34:32;100016.78;;;22.29;67.70
17230;BME280;8731;50.364;8.958;2022-08-01T03:38:57;100018.44;;;22.27;69.13
17230;BME280;8731;50.364;8.958;2022-08-01T03:43:26;100020.53;;;22.16;65.93
17230;BME280;8731;50.364;8.958;2022-08-01T03:47:57;100018.00;;;22.18;68.57
17230;BME280;8731;50.364;8.958;2022-08-01T03:52:24;100015.47;;;22.19;68.35
17230;BME280;8731;50.364;8.958;2022-08-01T03:56:50;100013.78;;;22.20;68.83
17230;BME280;8731;50.364;8.958;2022-08-01T04:01:14;100019.75;;;21.99;65.22
17230;BME280;8731;50.364;8.958;2022-08-01T04:05:37;100022.31;;;22.17;68.08
17230;BME280;8731;50.364;8.958;2022-08-01T04:10:04;100029.34;;;22.20;68.34
17230;BME280;8731;50.364;8.958;2022-08-01T04:14:28;100023.31;;;22.21;68.57
17230;BME280;8731;50.364;8.958;2022-08-01T04:18:50;100036.47;;;22.04;67.75
17230;BME280;8731;50.364;8.958;2022-08-01T04:23:13;100034.94;;;22.10;69.99
17230;BME280;8731;50.364;8.958;2022-08-01T04:27:40;100034.00;;;22.08;70.08
17230;BME280;8731;50.364;8.958;2022-08-01T04:32:06;100043.19;;;22.01;71.69
17230;BME280;8731;50.364;8.958;2022-08-01T04:36:33;100040.44;;;21.98;72.25
17230;BME280;8731;50.364;8.958;2022-08-01T04:40:58;100048.19;;;22.16;68.95
17230;BME280;8731;50.364;8.958;2022-08-01T04:45:23;100048.25;;;22.17;69.18
17230;BME280;8731;50.364;8.958;2022-08-01T04:49:46;100059.88;;;22.06;69.84
17230;BME280;8731;50.364;8.958;2022-08-01T04:54:09;100058.75;;;22.20;69.84
17230;BME280;8731;50.364;8.958;2022-08-01T04:58:31;100063.06;;;22.20;69.13
17230;BME280;8731;50.364;8.958;2022-08-01T05:02:55;100057.19;;;22.24;69.97
17230;BME280;8731;50.364;8.958;2022-08-01T05:07:17;100058.16;;;22.26;69.77
17230;BME280;8731;50.364;8.958;2022-08-01T05:11:39;100060.97;;;22.30;69.78
17230;BME280;8731;50.364;8.958;2022-08-01T05:16:02;100065.44;;;22.34;70.44
17230;BME280;8731;50.364;8.958;2022-08-01T05:20:26;100070.97;;;22.42;69.79
17230;BME280;8731;50.364;8.958;2022-08-01T05:24:48;100066.78;;;22.46;69.44
17230;BME280;8731;50.364;8.958;2022-08-01T05:29:10;100072.75;;;22.43;70.11
17230;BME280;8731;50.364;8.958;2022-08-01T05:33:33;100075.69;;;22.51;70.02
17230;BME280;8731;50.364;8.958;2022-08-01T05:37:56;100085.31;;;22.53;70.08
17230;BME280;8731;50.364;8.958;2022-08-01T05:42:18;100078.59;;;22.58;69.52
17230;BME280;8731;50.364;8.958;2022-08-01T05:46:41;100083.03;;;22.61;69.53
17230;BME280;8731;50.364;8.958;2022-08-01T05:51:04;100082.94;;;22.79;69.66
17230;BME280;8731;50.364;8.958;2022-08-01T05:55:27;100082.47;;;22.87;68.77
17230;BME280;8731;50.364;8.958;2022-08-01T05:59:50;100086.78;;;22.87;68.86
17230;BME280;8731;50.364;8.958;2022-08-01T06:04:12;100099.00;;;22.89;68.63
17230;BME280;8731;50.364;8.958;2022-08-01T06:08:34;100095.91;;;22.98;68.30
17230;BME280;8731;50.364;8.958;2022-08-01T06:12:58;100095.03;;;22.98;69.04
17230;BME280;8731;50.364;8.958;2022-08-01T06:17:23;100097.28;;;23.11;67.97
17230;BME280;8731;50.364;8.958;2022-08-01T06:21:45;100099.41;;;23.19;66.69
17230;BME280;8731;50.364;8.958;2022-08-01T06:26:08;100095.41;;;23.27;67.29
17230;BME280;8731;50.364;8.958;2022-08-01T06:30:32;100100.13;;;23.38;66.99
17230;BME280;8731;50.364;8.958;2022-08-01T06:34:54;100100.34;;;23.65;66.44
17230;BME280;8731;50.364;8.958;2022-08-01T06:39:17;100101.72;;;24.00;66.03
17230;BME280;8731;50.364;8.958;2022-08-01T06:43:39;100103.00;;;24.11;65.58
17230;BME280;8731;50.364;8.958;2022-08-01T06:48:03;100107.94;;;24.27;65.41
17230;BME280;8731;50.364;8.958;2022-08-01T06:52:26;100108.31;;;24.36;64.57
17230;BME280;8731;50.364;8.958;2022-08-01T06:56:49;100104.44;;;24.49;64.38
17230;BME280;8731;50.364;8.958;2022-08-01T07:01:11;100111.28;;;24.71;63.60
17230;BME280;8731;50.364;8.958;2022-08-01T07:05:35;100106.50;;;24.83;63.43
17230;BME280;8731;50.364;8.958;2022-08-01T07:09:57;100117.91;;;25.11;63.31
17230;BME280;8731;50.364;8.958;2022-08-01T07:14:20;100109.25;;;25.12;63.48
17230;BME280;8731;50.364;8.958;2022-08-01T07:18:42;100108.13;;;25.30;63.02
17230;BME280;8731;50.364;8.958;2022-08-01T07:23:06;100102.66;;;25.23;62.37
17230;BME280;8731;50.364;8.958;2022-08-01T07:27:28;100110.91;;;25.35;62.15
17230;BME280;8731;50.364;8.958;2022-08-01T07:31:51;100112.66;;;25.36;60.81
17230;BME280;8731;50.364;8.958;2022-08-01T07:36:14;100121.56;;;25.43;61.39
17230;BME280;8731;50.364;8.958;2022-08-01T07:40:38;100111.50;;;25.55;60.72
17230;BME280;8731;50.364;8.958;2022-08-01T07:45:00;100113.00;;;25.74;59.84
17230;BME280;8731;50.364;8.958;2022-08-01T07:49:22;100106.81;;;25.70;60.09
17230;BME280;8731;50.364;8.958;2022-08-01T07:53:45;100111.53;;;25.82;59.92
17230;BME280;8731;50.364;8.958;2022-08-01T07:58:08;100107.22;;;25.82;59.96
17230;BME280;8731;50.364;8.958;2022-08-01T08:02:30;100103.19;;;25.93;58.84
17230;BME280;8731;50.364;8.958;2022-08-01T08:06:53;100103.56;;;26.06;58.95
17230;BME280;8731;50.364;8.958;2022-08-01T08:11:15;100102.63;;;26.34;57.96
17230;BME280;8731;50.364;8.958;2022-08-01T08:15:39;100100.69;;;26.26;58.74
17230;BME280;8731;50.364;8.958;2022-08-01T08:20:03;100110.09;;;26.21;58.33
17230;BME280;8731;50.364;8.958;2022-08-01T08:24:26;100104.91;;;26.51;58.19
17230;BME280;8731;50.364;8.958;2022-08-01T08:28:48;100123.78;;;26.13;58.33
17230;BME280;8731;50.364;8.958;2022-08-01T08:33:12;100117.47;;;26.35;57.83
17230;BME280;8731;50.364;8.958;2022-08-01T08:37:35;100128.22;;;26.45;57.56
17230;BME280;8731;50.364;8.958;2022-08-01T08:41:59;100121.25;;;26.46;56.74
17230;BME280;8731;50.364;8.958;2022-08-01T08:46:23;100122.22;;;26.49;57.31
17230;BME280;8731;50.364;8.958;2022-08-01T08:50:49;100113.59;;;26.50;57.62
17230;BME280;8731;50.364;8.958;2022-08-01T08:55:13;100119.50;;;26.45;57.36
17230;BME280;8731;50.364;8.958;2022-08-01T08:59:38;100117.56;;;26.69;56.37
17230;BME280;8731;50.364;8.958;2022-08-01T09:04:01;100122.28;;;26.82;55.62
17230;BME280;8731;50.364;8.958;2022-08-01T09:08:25;100116.63;;;26.99;55.56
17230;BME280;8731;50.364;8.958;2022-08-01T09:13:04;100115.94;;;27.06;55.49
17230;BME280;8731;50.364;8.958;2022-08-01T09:17:39;100113.47;;;27.12;54.87
17230;BME280;8731;50.364;8.958;2022-08-01T09:22:03;100112.69;;;27.50;53.81
17230;BME280;8731;50.364;8.958;2022-08-01T09:26:31;100120.19;;;27.71;53.21
17230;BME280;8731;50.364;8.958;2022-08-01T09:30:55;100117.19;;;27.92;52.46
17230;BME280;8731;50.364;8.958;2022-08-01T09:35:25;100118.19;;;28.39;51.65
17230;BME280;8731;50.364;8.958;2022-08-01T09:39:54;100115.84;;;28.55;50.10
17230;BME280;8731;50.364;8.958;2022-08-01T09:44:24;100117.03;;;28.70;50.08
17230;BME280;8731;50.364;8.958;2022-08-01T09:49:00;100116.78;;;28.58;48.89
17230;BME280;8731;50.364;8.958;2022-08-01T09:53:23;100109.72;;;28.98;48.14
17230;BME280;8731;50.364;8.958;2022-08-01T09:57:54;100112.78;;;28.77;48.80
17230;BME280;8731;50.364;8.958;2022-08-01T10:02:31;100105.97;;;28.85;48.02
17230;BME280;8731;50.364;8.958;2022-08-01T10:07:03;100103.19;;;28.78;47.21
17230;BME280;8731;50.364;8.958;2022-08-01T10:11:28;100091.00;;;29.85;45.98
17230;BME280;8731;50.364;8.958;2022-08-01T10:15:51;100087.31;;;30.39;45.37
17230;BME280;8731;50.364;8.958;2022-08-01T10:20:16;100085.31;;;30.20;46.03
17230;BME280;8731;50.364;8.958;2022-08-01T10:24:40;100083.78;;;30.37;47.73
17230;BME280;8731;50.364;8.958;2022-08-01T10:29:05;100079.25;;;31.09;44.26
17230;BME280;8731;50.364;8.958;2022-08-01T10:33:29;100071.38;;;31.10;40.78
17230;BME280;8731;50.364;8.958;2022-08-01T10:37:53;100075.09;;;31.37;42.04
17230;BME280;8731;50.364;8.958;2022-08-01T10:42:18;100067.63;;;30.84;40.86
17230;BME280;8731;50.364;8.958;2022-08-01T10:46:45;100058.59;;;31.65;40.71
17230;BME280;8731;50.364;8.958;2022-08-01T10:51:11;100054.56;;;32.38;39.67
17230;BME280;8731;50.364;8.958;2022-08-01T10:55:51;100056.41;;;32.87;39.46
17230;BME280;8731;50.364;8.958;2022-08-01T11:00:20;100052.00;;;33.46;37.90
17230;BME280;8731;50.364;8.958;2022-08-01T11:04:49;100045.84;;;33.51;38.21
17230;BME280;8731;50.364;8.958;2022-08-01T11:09:23;100047.53;;;33.74;37.14
17230;BME280;8731;50.364;8.958;2022-08-01T11:14:03;100051.13;;;33.28;38.41
17230;BME280;8731;50.364;8.958;2022-08-01T11:18:31;100050.28;;;33.17;37.60
17230;BME280;8731;50.364;8.958;2022-08-01T11:23:25;100050.28;;;32.91;39.82
17230;BME280;8731;50.364;8.958;2022-08-01T11:28:17;100048.50;;;33.18;38.56
17230;BME280;8731;50.364;8.958;2022-08-01T11:32:47;100052.03;;;32.97;38.01
17230;BME280;8731;50.364;8.958;2022-08-01T11:37:23;100046.16;;;31.38;42.44
17230;BME280;8731;50.364;8.958;2022-08-01T11:41:47;100043.84;;;30.72;41.42
17230;BME280;8731;50.364;8.958;2022-08-01T11:46:10;100034.13;;;31.74;40.72
17230;BME280;8731;50.364;8.958;2022-08-01T11:50:35;100030.34;;;31.32;39.50
17230;BME280;8731;50.364;8.958;2022-08-01T11:55:05;100027.53;;;31.12;40.38
17230;BME280;8731;50.364;8.958;2022-08-01T11:59:35;100027.84;;;31.60;39.70
17230;BME280;8731;50.364;8.958;2022-08-01T12:03:59;100027.75;;;31.40;39.89
17230;BME280;8731;50.364;8.958;2022-08-01T12:08:27;100025.00;;;30.29;42.32
17230;BME280;8731;50.364;8.958;2022-08-01T12:12:53;100022.44;;;31.34;41.34
17230;BME280;8731;50.364;8.958;2022-08-01T12:17:17;100028.78;;;30.57;41.40
17230;BME280;8731;50.364;8.958;2022-08-01T12:21:40;100024.66;;;30.80;41.67
17230;BME280;8731;50.364;8.958;2022-08-01T12:26:03;100015.78;;;30.71;41.70
17230;BME280;8731;50.364;8.958;2022-08-01T12:30:25;100012.41;;;30.85;41.24
17230;BME280;8731;50.364;8.958;2022-08-01T12:34:48;100018.50;;;30.77;40.67
17230;BME280;8731;50.364;8.958;2022-08-01T12:39:11;100017.84;;;31.08;41.04
17230;BME280;8731;50.364;8.958;2022-08-01T12:43:34;100010.75;;;30.97;40.14
17230;BME280;8731;50.364;8.958;2022-08-01T12:47:57;100014.34;;;31.08;39.68
17230;BME280;8731;50.364;8.958;2022-08-01T12:52:22;100018.50;;;30.77;40.04
17230;BME280;8731;50.364;8.958;2022-08-01T12:56:45;100019.41;;;30.80;39.36
17230;BME280;8731;50.364;8.958;2022-08-01T13:01:10;100021.25;;;30.97;40.18
17230;BME280;8731;50.364;8.958;2022-08-01T13:05:44;100015.22;;;31.05;40.28
17230;BME280;8731;50.364;8.958;2022-08-01T13:10:07;100012.44;;;30.89;39.96
17230;BME280;8731;50.364;8.958;2022-08-01T13:14:30;100008.41;;;30.33;40.50
17230;BME280;8731;50.364;8.958;2022-08-01T13:18:55;100004.59;;;30.96;40.22
17230;BME280;8731;50.364;8.958;2022-08-01T13:23:19;100006.41;;;31.00;40.15
17230;BME280;8731;50.364;8.958;2022-08-01T13:27:41;99998.41;;;30.88;39.81
17230;BME280;8731;50.364;8.958;2022-08-01T13:32:13;99998.41;;;30.90;39.37
17230;BME280;8731;50.364;8.958;2022-08-01T13:36:38;100004.66;;;31.01;39.30
17230;BME280;8731;50.364;8.958;2022-08-01T13:41:01;99998.38;;;30.82;39.73
17230;BME280;8731;50.364;8.958;2022-08-01T13:45:24;100003.81;;;31.05;39.36
17230;BME280;8731;50.364;8.958;2022-08-01T13:49:46;100003.81;;;31.06;39.56
17230;BME280;8731;50.364;8.958;2022-08-01T13:54:10;99996.81;;;31.07;39.07
17230;BME280;8731;50.364;8.958;2022-08-01T13:58:32;99995.00;;;31.01;39.33
17230;BME280;8731;50.364;8.958;2022-08-01T14:02:54;99998.34;;;30.79;39.33
17230;BME280;8731;50.364;8.958;2022-08-01T14:07:17;100008.28;;;31.17;39.02
17230;BME280;8731;50.364;8.958;2022-08-01T14:11:40;99996.03;;;31.22;38.73
17230;BME280;8731;50.364;8.958;2022-08-01T14:16:03;99984.53;;;31.06;39.40
17230;BME280;8731;50.364;8.958;2022-08-01T14:20:26;99986.44;;;31.25;39.12
17230;BME280;8731;50.364;8.958;2022-08-01T14:24:48;99987.34;;;31.32;38.92
17230;BME280;8731;50.364;8.958;2022-08-01T14:29:12;99992.59;;;31.32;38.30
17230;BME280;8731;50.364;8.958;2022-08-01T14:33:34;99994.38;;;31.36;38.22
17230;BME280;8731;50.364;8.958;2022-08-01T14:37:56;99989.22;;;31.54;38.41
17230;BME280;8731;50.364;8.958;2022-08-01T14:42:18;99993.47;;;31.31;37.95
17230;BME280;8731;50.364;8.958;2022-08-01T14:46:42;99988.22;;;31.28;37.82
17230;BME280;8731;50.364;8.958;2022-08-01T14:51:05;99985.63;;;31.37;38.04
17230;BME280;8731;50.364;8.958;2022-08-01T14:55:28;99990.88;;;31.34;38.36
17230;BME280;8731;50.364;8.958;2022-08-01T14:59:50;99993.41;;;31.22;38.70
17230;BME280;8731;50.364;8.958;2022-08-01T15:04:14;99991.66;;;31.22;38.85
17230;BME280;8731;50.364;8.958;2022-08-01T15:08:37;99992.25;;;30.86;37.93
17230;BME280;8731;50.364;8.958;2022-08-01T15:12:59;99986.44;;;31.27;38.53
17230;BME280;8731;50.364;8.958;2022-08-01T15:17:23;99981.91;;;31.10;38.25
17230;BME280;8731;50.364;8.958;2022-08-01T15:21:47;99982.84;;;31.17;38.36
17230;BME280;8731;50.364;8.958;2022-08-01T15:26:09;99982.09;;;31.38;38.68
17230;BME280;8731;50.364;8.958;2022-08-01T15:30:33;99986.47;;;31.36;38.15
17230;BME280;8731;50.364;8.958;2022-08-01T15:34:56;99982.75;;;31.05;38.40
17230;BME280;8731;50.364;8.958;2022-08-01T15:39:19;99984.56;;;31.13;38.56
17230;BME280;8731;50.364;8.958;2022-08-01T15:43:42;99981.06;;;31.14;38.25
17230;BME280;8731;50.364;8.958;2022-08-01T15:48:04;99978.41;;;31.11;38.33
17230;BME280;8731;50.364;8.958;2022-08-01T15:52:27;99985.59;;;31.32;37.96
17230;BME280;8731;50.364;8.958;2022-08-01T15:56:51;99986.44;;;31.27;38.12
17230;BME280;8731;50.364;8.958;2022-08-01T16:01:13;99978.50;;;31.22;37.58
17230;BME280;8731;50.364;8.958;2022-08-01T16:05:35;99982.78;;;31.08;37.83
17230;BME280;8731;50.364;8.958;2022-08-01T16:09:58;99993.41;;;31.22;37.50
17230;BME280;8731;50.364;8.958;2022-08-01T16:14:21;99987.50;;;30.47;37.52
17230;BME280;8731;50.364;8.958;2022-08-01T16:18:44;99989.38;;;30.57;37.66
17230;BME280;8731;50.364;8.958;2022-08-01T16:23:06;99990.47;;;30.82;37.48
17230;BME280;8731;50.364;8.958;2022-08-01T16:27:29;99986.97;;;30.80;38.38
17230;BME280;8731;50.364;8.958;2022-08-01T16:31:53;99987.81;;;30.77;38.50
17230;BME280;8731;50.364;8.958;2022-08-01T16:36:15;99991.22;;;30.69;37.99
17230;BME280;8731;50.364;8.958;2022-08-01T16:40:38;100002.50;;;30.57;38.44
17230;BME280;8731;50.364;8.958;2022-08-01T16:45:00;99998.09;;;30.53;38.17
17230;BME280;8731;50.364;8.958;2022-08-01T16:49:24;99993.59;;;30.43;38.95
17230;BME280;8731;50.364;8.958;2022-08-01T16:53:46;99997.00;;;30.31;38.86
17230;BME280;8731;50.364;8.958;2022-08-01T16:58:08;100004.91;;;30.34;38.52
17230;BME280;8731;50.364;8.958;2022-08-01T17:02:31;99989.13;;;30.31;38.75
17230;BME280;8731;50.364;8.958;2022-08-01T17:06:54;99996.16;;;30.34;39.22
17230;BME280;8731;50.364;8.958;2022-08-01T17:11:17;99998.53;;;30.11;38.80
17230;BME280;8731;50.364;8.958;2022-08-01T17:15:39;100007.28;;;30.08;39.01
17230;BME280;8731;50.364;8.958;2022-08-01T17:20:02;100001.81;;;29.96;39.41
17230;BME280;8731;50.364;8.958;2022-08-01T17:24:26;100003.47;;;29.85;40.09
17230;BME280;8731;50.364;8.958;2022-08-01T17:28:48;100006.81;;;29.76;39.83
17230;BME280;8731;50.364;8.958;2022-08-01T17:33:11;100004.97;;;29.66;39.88
17230;BME280;8731;50.364;8.958;2022-08-01T17:37:33;100004.16;;;29.73;39.87
17230;BME280;8731;50.364;8.958;2022-08-01T17:41:57;100007.59;;;29.66;40.37
17230;BME280;8731;50.364;8.958;2022-08-01T17:46:19;100017.00;;;29.52;40.31
17230;BME280;8731;50.364;8.958;2022-08-01T17:50:42;100015.97;;;29.41;40.64
17230;BME280;8731;50.364;8.958;2022-08-01T17:55:05;100025.28;;;29.20;40.77
17230;BME280;8731;50.364;8.958;2022-08-01T17:59:29;100022.63;;;29.17;40.95
17230;BME280;8731;50.364;8.958;2022-08-01T18:03:52;100033.53;;;28.89;41.59
17230;BME280;8731;50.364;8.958;2022-08-01T18:08:15;100031.34;;;28.66;41.83
17230;BME280;8731;50.364;8.958;2022-08-01T18:12:37;100033.09;;;28.66;42.27
17230;BME280;8731;50.364;8.958;2022-08-01T18:17:02;100030.28;;;28.57;42.38
17230;BME280;8731;50.364;8.958;2022-08-01T18:21:24;100037.06;;;28.44;42.60
17230;BME280;8731;50.364;8.958;2022-08-01T18:25:46;100045.56;;;28.32;42.62
17230;BME280;8731;50.364;8.958;2022-08-01T18:30:09;100044.56;;;28.26;43.08
17230;BME280;8731;50.364;8.958;2022-08-01T18:34:33;100056.69;;;27.80;44.10
17230;BME280;8731;50.364;8.958;2022-08-01T18:38:56;100064.47;;;27.77;44.39
17230;BME280;8731;50.364;8.958;2022-08-01T18:43:19;100064.25;;;27.68;45.60
17230;BME280;8731;50.364;8.958;2022-08-01T18:47:41;100080.72;;;27.62;46.79
17230;BME280;8731;50.364;8.958;2022-08-01T18:52:05;100084.13;;;27.60;46.88
17230;BME280;8731;50.364;8.958;2022-08-01T18:56:27;100086.22;;;27.38;47.72
17230;BME280;8731;50.364;8.958;2022-08-01T19:00:50;100094.84;;;27.34;48.05
17230;BME280;8731;50.364;8.958;2022-08-01T19:05:12;100102.25;;;27.16;48.90
17230;BME280;8731;50.364;8.958;2022-08-01T19:09:36;100102.59;;;26.97;49.31
17230;BME280;8731;50.364;8.958;2022-08-01T19:13:59;100111.16;;;26.91;48.58
17230;BME280;8731;50.364;8.958;2022-08-01T19:18:22;100117.25;;;26.57;49.99
17230;BME280;8731;50.364;8.958;2022-08-01T19:22:45;100128.00;;;26.38;50.70
17230;BME280;8731;50.364;8.958;2022-08-01T19:27:10;100129.19;;;26.20;51.79
17230;BME280;8731;50.364;8.958;2022-08-01T19:31:39;100147.69;;;25.98;52.38
17230;BME280;8731;50.364;8.958;2022-08-01T19:36:02;100135.25;;;26.19;50.54
17230;BME280;8731;50.364;8.958;2022-08-01T19:40:25;100143.34;;;25.98;50.76
17230;BME280;8731;50.364;8.958;2022-08-01T19:44:50;100155.06;;;25.83;52.47
17230;BME280;8731;50.364;8.958;2022-08-01T19:49:13;100151.66;;;25.85;52.07
17230;BME280;8731;50.364;8.958;2022-08-01T19:53:38;100158.34;;;25.77;51.33
17230;BME280;8731;50.364;8.958;2022-08-01T19:58:05;100165.06;;;25.44;53.77
17230;BME280;8731;50.364;8.958;2022-08-01T20:02:32;100164.25;;;25.46;52.82
17230;BME280;8731;50.364;8.958;2022-08-01T20:06:56;100173.78;;;24.95;55.15
17230;BME280;8731;50.364;8.958;2022-08-01T20:11:18;100172.59;;;25.09;53.62
17230;BME280;8731;50.364;8.958;2022-08-01T20:15:43;100176.44;;;25.20;52.93
17230;BME280;8731;50.364;8.958;2022-08-01T20:20:08;100185.09;;;25.19;52.89
17230;BME280;8731;50.364;8.958;2022-08-01T20:24:35;100188.44;;;24.91;54.67
17230;BME280;8731;50.364;8.958;2022-08-01T20:28:59;100197.75;;;24.85;54.60
17230;BME280;8731;50.364;8.958;2022-08-01T20:33:24;100199.00;;;24.72;54.48
17230;BME280;8731;50.364;8.958;2022-08-01T20:37:50;100202.66;;;24.77;54.31
17230;BME280;8731;50.364;8.958;2022-08-01T20:42:15;100200.28;;;24.83;53.78
17230;BME280;8731;50.364;8.958;2022-08-01T20:46:38;100202.72;;;24.55;55.14
17230;BME280;8731;50.364;8.958;2022-08-01T20:51:01;100205.63;;;24.62;54.87
17230;BME280;8731;50.364;8.958;2022-08-01T20:55:43;100201.28;;;24.63;55.00
17230;BME280;8731;50.364;8.958;2022-08-01T21:00:10;100195.63;;;24.51;55.66
17230;BME280;8731;50.364;8.958;2022-08-01T21:04:42;100205.88;;;24.46;54.76
17230;BME280;8731;50.364;8.958;2022-08-01T21:09:19;100212.44;;;24.36;55.88
17230;BME280;8731;50.364;8.958;2022-08-01T21:13:46;100211.94;;;24.24;55.69
17230;BME280;8731;50.364;8.958;2022-08-01T21:18:11;100213.47;;;24.19;56.41
17230;BME280;8731;50.364;8.958;2022-08-01T21:22:36;100212.88;;;24.04;56.48
17230;BME280;8731;50.364;8.958;2022-08-01T21:27:08;100213.06;;;24.08;56.67
17230;BME280;8731;50.364;8.958;2022-08-01T21:31:33;100218.78;;;24.00;56.98
17230;BME280;8731;50.364;8.958;2022-08-01T21:35:58;100219.75;;;24.02;56.27
17230;BME280;8731;50.364;8.958;2022-08-01T21:40:22;100220.38;;;23.96;56.54
17230;BME280;8731;50.364;8.958;2022-08-01T21:44:46;100222.00;;;23.93;56.35
17230;BME280;8731;50.364;8.958;2022-08-01T21:49:10;100236.50;;;23.87;57.33
17230;BME280;8731;50.364;8.958;2022-08-01T21:53:36;100241.94;;;23.52;59.60
17230;BME280;8731;50.364;8.958;2022-08-01T21:58:16;100238.38;;;23.69;57.85
17230;BME280;8731;50.364;8.958;2022-08-01T22:02:52;100256.81;;;23.75;57.53
17230;BME280;8731;50.364;8.958;2022-08-01T22:07:24;100255.53;;;23.66;58.73
17230;BME280;8731;50.364;8.958;2022-08-01T22:11:47;100257.00;;;23.59;58.44
17230;BME280;8731;50.364;8.958;2022-08-01T22:16:12;100255.16;;;23.56;59.00
17230;BME280;8731;50.364;8.958;2022-08-01T22:20:35;100243.59;;;23.50;59.25
17230;BME280;8731;50.364;8.958;2022-08-01T22:24:59;100249.56;;;23.47;58.27
17230;BME280;8731;50.364;8.958;2022-08-01T22:29:22;100251.81;;;23.40;59.51
17230;BME280;8731;50.364;8.958;2022-08-01T22:33:49;100256.69;;;23.32;59.41
17230;BME280;8731;50.364;8.958;2022-08-01T22:38:11;100254.31;;;23.17;60.06
17230;BME280;8731;50.364;8.958;2022-08-01T22:42:38;100266.16;;;23.11;60.30
17230;BME280;8731;50.364;8.958;2022-08-01T22:47:06;100259.81;;;23.04;60.10
17230;BME280;8731;50.364;8.958;2022-08-01T22:51:42;100260.34;;;22.97;60.62
17230;BME280;8731;50.364;8.958;2022-08-01T22:56:23;100252.41;;;22.94;60.19
17230;BME280;8731;50.364;8.958;2022-08-01T23:00:51;100258.69;;;22.80;61.11
17230;BME280;8731;50.364;8.958;2022-08-01T23:05:19;100254.03;;;22.73;60.78
17230;BME280;8731;50.364;8.958;2022-08-01T23:09:44;100255.25;;;22.61;61.92
17230;BME280;8731;50.364;8.958;2022-08-01T23:14:07;100266.50;;;22.62;61.14
17230;BME280;8731;50.364;8.958;2022-08-01T23:18:31;100258.81;;;22.46;62.28
17230;BME280;8731;50.364;8.958;2022-08-01T23:22:54;100265.38;;;22.02;64.40
17230;BME280;8731;50.364;8.958;2022-08-01T23:27:18;100266.69;;;21.94;63.55